Time;durP1;ratioP1;P1;durP2;ratioP2;P2;SDS_P1;SDS_P2;PMS_P1;PMS_P2;Temp;Humidity;BMP_temperature;BMP_pressure;BME280_temperature;BME280_humidity;BME280_pressure;Samples;Min_cycle;Max_cycle;Signal;HPM_P1;HPM_P2
2022/02/20 00:02:16;;;;;;;3.30;1.67;;;21.40;48.20;;;;;;4969506;28;93194;-83
2022/02/20 00:04:42;;;;;;;6.82;2.10;;;21.40;48.20;;;;;;4969102;28;92697;-83
2022/02/20 00:07:09;;;;;;;5.03;1.83;;;21.30;48.20;;;;;;4969468;28;92836;-83
2022/02/20 00:09:36;;;;;;;5.75;1.65;;;21.40;48.80;;;;;;4968093;28;95345;-83
2022/02/20 00:12:01;;;;;;;3.38;1.52;;;21.40;48.20;;;;;;4953663;28;96873;-81
2022/02/20 00:14:27;;;;;;;6.13;1.92;;;21.30;48.00;;;;;;4984514;28;92672;-82
2022/02/20 00:16:52;;;;;;;4.03;1.83;;;21.30;48.00;;;;;;4968093;28;92074;-83
2022/02/20 00:19:18;;;;;;;4.28;1.85;;;21.30;48.00;;;;;;4968982;28;93206;-82
2022/02/20 00:21:44;;;;;;;3.90;1.92;;;21.30;48.00;;;;;;4957217;28;96019;-81
2022/02/20 00:24:09;;;;;;;4.97;1.58;;;21.30;48.00;;;;;;4967117;28;93524;-82
2022/02/20 00:26:35;;;;;;;4.93;2.00;;;21.20;47.90;;;;;;4968295;28;92663;-83
2022/02/20 00:29:00;;;;;;;5.35;1.98;;;21.30;47.90;;;;;;4968529;28;93760;-82
2022/02/20 00:31:26;;;;;;;4.05;1.65;;;21.20;48.00;;;;;;4968707;28;92844;-84
2022/02/20 00:33:52;;;;;;;3.47;1.80;;;21.20;47.90;;;;;;4966282;28;93427;-83
2022/02/20 00:36:17;;;;;;;4.13;1.90;;;21.30;47.90;;;;;;4966139;28;92335;-82
2022/02/20 00:39:00;;;;;;;6.30;2.13;;;21.30;48.00;;;;;;4967282;28;96068;-83
2022/02/20 00:41:26;;;;;;;4.88;1.75;;;21.30;47.80;;;;;;4967638;28;94804;-83
2022/02/20 00:43:52;;;;;;;4.32;1.95;;;21.20;47.80;;;;;;4969392;28;93246;-83
2022/02/20 00:46:17;;;;;;;4.32;1.80;;;21.30;47.80;;;;;;4968915;28;92860;-83
2022/02/20 00:48:43;;;;;;;5.65;2.08;;;21.20;47.80;;;;;;4967997;28;95161;-83
2022/02/20 00:51:09;;;;;;;4.63;2.00;;;21.20;47.90;;;;;;4966755;28;96010;-83
2022/02/20 00:53:34;;;;;;;3.97;1.70;;;21.20;47.80;;;;;;4966170;28;92571;-83
2022/02/20 00:56:00;;;;;;;3.58;1.70;;;21.20;47.80;;;;;;4967778;28;92847;-82
2022/02/20 00:58:26;;;;;;;3.70;1.85;;;21.20;47.80;;;;;;4968190;28;93328;-83
2022/02/20 01:00:52;;;;;;;4.38;2.00;;;21.20;47.60;;;;;;4968297;28;92878;-84
2022/02/20 01:03:17;;;;;;;5.88;1.95;;;21.20;47.70;;;;;;4968356;28;92059;-84
2022/02/20 01:05:44;;;;;;;4.95;1.95;;;21.10;47.70;;;;;;4983881;28;92327;-83
2022/02/20 01:08:10;;;;;;;3.28;2.00;;;21.20;47.70;;;;;;4966319;28;95670;-84
2022/02/20 01:10:35;;;;;;;3.67;1.90;;;21.10;47.40;;;;;;4968103;28;93494;-83
2022/02/20 01:13:01;;;;;;;2.85;1.60;;;21.10;47.50;;;;;;4967044;28;93974;-82
2022/02/20 01:15:27;;;;;;;4.18;1.75;;;21.10;47.60;;;;;;4967108;28;92982;-82
2022/02/20 01:17:53;;;;;;;6.72;2.10;;;21.10;47.40;;;;;;4965620;28;95444;-83
2022/02/20 01:20:19;;;;;;;3.97;1.52;;;21.10;47.40;;;;;;4964703;28;95357;-83
2022/02/20 01:22:47;;;;;;;3.42;1.75;;;21.10;47.50;;;;;;4983018;28;92647;-83
2022/02/20 01:25:15;;;;;;;4.10;1.83;;;21.10;47.40;;;;;;4967994;28;92552;-82
2022/02/20 01:27:40;;;;;;;3.28;1.70;;;21.10;47.40;;;;;;4967426;28;92706;-83
2022/02/20 01:30:06;;;;;;;3.13;1.73;;;21.10;47.50;;;;;;4982607;28;95820;-83
2022/02/20 01:32:32;;;;;;;3.90;1.70;;;21.10;47.40;;;;;;4958963;28;92150;-82
2022/02/20 01:35:00;;;;;;;3.22;1.52;;;21.10;47.40;;;;;;4967864;28;93040;-83
2022/02/20 01:37:26;;;;;;;3.13;1.70;;;21.10;47.40;;;;;;4967688;28;93975;-83
2022/02/20 01:39:51;;;;;;;3.03;1.67;;;21.00;47.30;;;;;;4966404;28;96171;-83
2022/02/20 01:42:17;;;;;;;5.13;1.95;;;21.10;47.30;;;;;;4968206;28;92531;-84
2022/02/20 01:44:43;;;;;;;3.90;1.67;;;21.10;47.40;;;;;;4966656;28;92832;-82
2022/02/20 01:47:10;;;;;;;3.85;1.90;;;21.10;47.30;;;;;;4966620;28;93088;-83
2022/02/20 01:49:37;;;;;;;4.88;1.73;;;21.10;47.30;;;;;;4967055;28;92785;-82
2022/02/20 01:52:04;;;;;;;4.03;2.05;;;21.10;47.40;;;;;;4967318;28;93084;-83
2022/02/20 01:54:29;;;;;;;3.63;1.55;;;21.00;47.30;;;;;;4953628;28;92177;-82
2022/02/20 01:56:56;;;;;;;2.90;1.50;;;21.00;47.40;;;;;;4956203;28;95441;-82
2022/02/20 01:59:24;;;;;;;5.05;1.70;;;21.00;47.30;;;;;;4966109;28;93897;-82
2022/02/20 02:01:50;;;;;;;3.40;1.55;;;21.00;47.30;;;;;;4966155;28;94351;-83
2022/02/20 02:04:16;;;;;;;4.40;1.70;;;21.00;47.30;;;;;;4981567;28;93077;-83
2022/02/20 02:06:44;;;;;;;3.20;1.33;;;21.00;47.40;;;;;;4965083;28;95538;-84
2022/02/20 02:09:10;;;;;;;3.00;1.30;;;21.00;47.30;;;;;;4982088;28;95509;-82
2022/02/20 02:11:36;;;;;;;3.65;1.80;;;21.00;47.30;;;;;;4965779;28;92246;-82
2022/02/20 02:14:02;;;;;;;4.85;1.98;;;21.00;47.30;;;;;;4966704;28;92037;-82
2022/02/20 02:16:27;;;;;;;3.80;1.50;;;21.00;47.40;;;;;;4982284;28;96275;-83
2022/02/20 02:18:53;;;;;;;3.75;1.48;;;21.00;47.30;;;;;;4966393;28;94917;-83
2022/02/20 02:21:19;;;;;;;3.78;1.58;;;21.00;47.50;;;;;;4965448;28;93785;-83
2022/02/20 02:23:44;;;;;;;3.22;1.48;;;21.00;47.30;;;;;;4955523;28;92980;-83
2022/02/20 02:26:11;;;;;;;3.55;1.77;;;21.00;47.50;;;;;;4966038;28;94059;-83
2022/02/20 02:28:37;;;;;;;3.15;1.60;;;20.90;47.30;;;;;;4966496;28;93310;-82
2022/02/20 02:31:07;;;;;;;3.08;1.45;;;20.90;47.40;;;;;;4968109;28;93064;-83
2022/02/20 02:33:34;;;;;;;2.83;1.50;;;20.90;47.40;;;;;;4970560;28;93004;-82
2022/02/20 02:36:01;;;;;;;4.05;1.60;;;21.00;47.50;;;;;;4969895;28;92939;-84
2022/02/20 02:38:29;;;;;;;3.40;1.65;;;20.90;47.20;;;;;;4970693;28;95640;-83
2022/02/20 02:40:57;;;;;;;3.83;1.40;;;20.90;47.30;;;;;;4969665;28;92015;-83
2022/02/20 02:43:22;;;;;;;3.92;1.77;;;20.90;47.30;;;;;;4960950;28;92344;-82
2022/02/20 02:45:48;;;;;;;4.78;1.67;;;20.90;47.40;;;;;;4970502;28;93069;-82
2022/02/20 02:48:14;;;;;;;5.15;1.63;;;20.90;47.60;;;;;;4969645;28;92983;-84
2022/02/20 02:50:40;;;;;;;3.15;1.40;;;20.90;47.30;;;;;;4970061;28;94084;-82
2022/02/20 02:53:08;;;;;;;3.15;1.50;;;20.90;47.40;;;;;;4970082;28;93237;-83
2022/02/20 02:55:36;;;;;;;3.05;1.52;;;20.90;47.40;;;;;;4985930;28;95459;-79
2022/02/20 02:58:03;;;;;;;2.97;1.60;;;20.90;47.50;;;;;;4969986;28;92747;-83
2022/02/20 03:00:31;;;;;;;3.75;1.73;;;20.90;47.30;;;;;;4969142;28;92857;-83
2022/02/20 03:02:56;;;;;;;3.85;1.60;;;20.90;47.30;;;;;;4984921;28;92370;-83
2022/02/20 03:05:22;;;;;;;3.45;1.70;;;20.90;47.60;;;;;;4970492;28;92803;-84
2022/02/20 03:07:48;;;;;;;3.08;1.55;;;20.90;47.40;;;;;;4971297;28;92592;-83
2022/02/20 03:10:16;;;;;;;3.33;1.50;;;20.90;47.70;;;;;;4971089;28;92994;-83
2022/02/20 03:12:42;;;;;;;2.73;1.47;;;20.80;47.30;;;;;;4971090;28;92928;-83
2022/02/20 03:15:08;;;;;;;3.65;1.65;;;20.80;47.50;;;;;;4969708;28;93855;-83
2022/02/20 03:17:34;;;;;;;2.70;1.35;;;20.80;47.50;;;;;;4970694;28;93867;-84
2022/02/20 03:20:00;;;;;;;2.20;1.20;;;20.80;47.40;;;;;;4971235;28;92482;-83
2022/02/20 03:22:25;;;;;;;1.65;1.10;;;20.80;47.30;;;;;;4970620;28;91945;-83
2022/02/20 03:24:51;;;;;;;2.40;1.20;;;20.80;47.60;;;;;;4970047;28;93223;-83
2022/02/20 03:27:17;;;;;;;2.03;1.27;;;20.80;47.40;;;;;;4969687;28;92611;-84
2022/02/20 03:29:42;;;;;;;2.67;1.40;;;20.80;47.50;;;;;;4970800;28;93238;-84
2022/02/20 03:32:08;;;;;;;3.17;1.58;;;20.80;47.30;;;;;;4970792;28;92177;-83
2022/02/20 03:34:35;;;;;;;3.97;1.70;;;20.80;47.50;;;;;;4969992;28;94217;-82
2022/02/20 03:37:01;;;;;;;3.53;1.65;;;20.80;47.50;;;;;;4968798;28;94947;-83
2022/02/20 03:39:31;;;;;;;3.15;1.30;;;20.80;47.40;;;;;;4970242;28;93483;-83
2022/02/20 03:42:02;;;;;;;3.17;1.63;;;20.80;47.40;;;;;;4984526;28;93031;-83
2022/02/20 03:44:28;;;;;;;2.92;1.48;;;20.80;48.20;;;;;;4969302;28;93104;-83
2022/02/20 03:46:54;;;;;;;1.85;1.20;;;20.70;47.50;;;;;;4969565;28;92607;-83
2022/02/20 03:49:20;;;;;;;2.75;1.48;;;20.70;47.50;;;;;;4968695;28;93129;-82
2022/02/20 03:51:45;;;;;;;2.30;1.33;;;20.80;47.40;;;;;;4968887;28;92959;-83
2022/02/20 03:54:11;;;;;;;2.60;1.40;;;20.80;47.60;;;;;;4969755;28;93230;-83
2022/02/20 03:56:37;;;;;;;3.30;1.40;;;20.70;47.50;;;;;;4970265;28;92241;-83
2022/02/20 03:59:03;;;;;;;2.22;1.23;;;20.70;47.50;;;;;;4969754;28;92414;-83
2022/02/20 04:01:28;;;;;;;2.55;1.25;;;20.70;47.50;;;;;;4969778;28;92578;-84
2022/02/20 04:03:54;;;;;;;2.47;1.20;;;20.70;47.40;;;;;;4969043;28;95126;-84
2022/02/20 04:06:20;;;;;;;3.80;1.60;;;20.70;47.50;;;;;;4969839;28;93443;-82
2022/02/20 04:08:45;;;;;;;3.17;1.40;;;20.70;47.40;;;;;;4970232;28;92825;-83
2022/02/20 04:11:11;;;;;;;2.25;1.38;;;20.70;47.30;;;;;;4959088;28;92565;-83
2022/02/20 04:13:40;;;;;;;2.40;1.38;;;20.70;47.50;;;;;;4984711;28;95227;-83
2022/02/20 04:16:06;;;;;;;1.63;1.30;;;20.70;47.40;;;;;;4970260;28;92826;-83
2022/02/20 04:18:31;;;;;;;3.15;1.73;;;20.70;47.50;;;;;;4961728;28;93081;-82
2022/02/20 04:20:57;;;;;;;2.65;1.20;;;20.70;47.50;;;;;;4958200;28;91798;-82
2022/02/20 04:23:34;;;;;;;3.22;1.52;;;20.70;47.50;;;;;;4969170;28;93006;-83
2022/02/20 04:26:01;;;;;;;2.60;1.50;;;20.70;47.60;;;;;;4969225;28;92101;-82
2022/02/20 04:28:28;;;;;;;3.83;1.52;;;20.70;47.50;;;;;;4968174;28;93361;-82
2022/02/20 04:30:54;;;;;;;1.95;1.10;;;20.70;48.10;;;;;;4969520;28;92736;-83
2022/02/20 04:33:20;;;;;;;2.50;1.38;;;20.70;47.40;;;;;;4970467;28;93406;-83
2022/02/20 04:35:45;;;;;;;2.53;1.30;;;20.70;47.50;;;;;;4971143;28;92450;-82
2022/02/20 04:38:11;;;;;;;2.20;1.40;;;20.70;47.60;;;;;;4969055;28;92223;-82
2022/02/20 04:40:36;;;;;;;2.80;1.48;;;20.70;47.50;;;;;;4969173;28;92683;-82
2022/02/20 04:43:02;;;;;;;3.08;1.40;;;20.60;47.40;;;;;;4967942;28;96017;-82
2022/02/20 04:45:28;;;;;;;1.80;1.10;;;20.60;47.30;;;;;;4970342;28;92587;-82
2022/02/20 04:47:53;;;;;;;2.33;1.30;;;20.70;47.50;;;;;;4968437;28;92040;-81
2022/02/20 04:50:19;;;;;;;2.70;1.30;;;20.60;47.30;;;;;;4969441;28;92013;-82
2022/02/20 04:52:45;;;;;;;2.65;1.27;;;20.70;47.20;;;;;;4968565;28;94118;-83
2022/02/20 04:55:10;;;;;;;3.97;1.60;;;20.60;47.40;;;;;;4982909;28;96640;-82
2022/02/20 04:57:37;;;;;;;3.17;1.40;;;20.60;47.50;;;;;;4968980;28;92694;-81
2022/02/20 05:00:09;;;;;;;2.65;1.40;;;20.60;47.40;;;;;;4966418;28;92884;-82
2022/02/20 05:02:44;;;;;;;2.88;1.67;;;20.60;47.20;;;;;;4968937;28;92484;-82
2022/02/20 05:05:10;;;;;;;3.00;1.52;;;20.60;47.50;;;;;;4968227;28;93126;-81
2022/02/20 05:07:36;;;;;;;2.92;1.52;;;20.60;47.50;;;;;;4969179;28;92435;-83
2022/02/20 05:10:03;;;;;;;2.92;1.50;;;20.60;47.40;;;;;;4969234;28;92390;-82
2022/02/20 05:12:28;;;;;;;4.38;1.90;;;20.60;47.30;;;;;;4968049;28;92611;-83
2022/02/20 05:14:54;;;;;;;3.67;1.77;;;20.60;47.40;;;;;;4968481;28;92709;-83
2022/02/20 05:17:19;;;;;;;1.85;1.23;;;20.60;47.30;;;;;;4969177;28;93498;-82
2022/02/20 05:19:45;;;;;;;2.38;1.40;;;20.60;47.30;;;;;;4968961;28;92873;-82
2022/02/20 05:22:11;;;;;;;2.50;1.13;;;20.60;47.40;;;;;;4967773;28;95496;-83
2022/02/20 05:24:37;;;;;;;2.85;1.17;;;20.60;47.40;;;;;;4967490;28;92805;-82
2022/02/20 05:27:03;;;;;;;2.70;1.42;;;20.60;47.40;;;;;;4968786;28;92462;-83
2022/02/20 05:29:34;;;;;;;2.60;1.38;;;20.50;47.50;;;;;;4984162;28;92502;-82
2022/02/20 05:31:59;;;;;;;2.95;1.60;;;20.60;47.40;;;;;;4959991;28;95827;-82
2022/02/20 05:34:25;;;;;;;3.20;1.60;;;20.60;47.50;;;;;;4969701;28;92568;-82
2022/02/20 05:36:50;;;;;;;2.17;1.15;;;20.60;47.50;;;;;;4969033;28;92991;-82
2022/02/20 05:39:16;;;;;;;3.13;1.60;;;20.60;47.50;;;;;;4966858;28;92381;-82
2022/02/20 05:41:42;;;;;;;2.28;1.25;;;20.50;47.40;;;;;;4983314;22;94634;-84
2022/02/20 05:44:07;;;;;;;2.67;1.38;;;20.60;47.30;;;;;;4965952;28;96486;-85
2022/02/20 05:46:35;;;;;;;3.25;1.70;;;20.60;47.50;;;;;;4968360;28;92976;-84
2022/02/20 05:49:04;;;;;;;3.35;1.50;;;20.50;47.30;;;;;;4965183;28;92666;-85
2022/02/20 05:51:31;;;;;;;2.67;1.17;;;20.50;47.40;;;;;;4967627;28;92949;-85
2022/02/20 05:53:57;;;;;;;3.22;1.48;;;20.50;47.30;;;;;;4964028;28;95930;-85
2022/02/20 05:56:22;;;;;;;2.20;1.05;;;20.50;47.30;;;;;;4965375;28;92869;-86
2022/02/20 05:58:48;;;;;;;4.75;1.70;;;20.50;47.30;;;;;;4966652;28;91608;-86
2022/02/20 06:01:13;;;;;;;1.80;1.17;;;20.50;47.30;;;;;;4966777;28;93088;-86
2022/02/20 06:03:39;;;;;;;2.13;1.25;;;20.50;47.30;;;;;;4965774;28;92728;-86
2022/02/20 06:06:05;;;;;;;2.83;1.25;;;20.50;47.30;;;;;;4965046;28;94147;-86
2022/02/20 06:08:30;;;;;;;2.35;1.40;;;20.50;47.40;;;;;;4966781;28;92064;-86
2022/02/20 06:10:56;;;;;;;3.30;1.55;;;20.50;47.30;;;;;;4966774;28;93276;-86
2022/02/20 06:13:22;;;;;;;3.00;1.70;;;20.50;47.20;;;;;;4967200;28;92458;-86
2022/02/20 06:15:48;;;;;;;2.67;1.50;;;20.50;47.20;;;;;;4966029;28;92669;-86
2022/02/20 06:18:14;;;;;;;4.20;1.77;;;20.50;47.30;;;;;;4964435;28;93240;-87
2022/02/20 06:20:39;;;;;;;3.42;1.70;;;20.50;47.30;;;;;;4965597;28;95613;-86
2022/02/20 06:23:05;;;;;;;3.25;1.30;;;20.50;47.30;;;;;;4965810;28;95129;-86
2022/02/20 06:25:31;;;;;;;5.20;1.85;;;20.50;47.30;;;;;;4967943;28;93068;-86
2022/02/20 06:27:57;;;;;;;5.20;1.60;;;20.40;47.00;;;;;;4966410;28;92465;-85
2022/02/20 06:30:24;;;;;;;3.35;1.33;;;20.40;47.30;;;;;;4964106;28;96902;-86
2022/02/20 06:32:49;;;;;;;5.63;1.95;;;20.40;47.80;;;;;;4965406;28;96805;-86
2022/02/20 06:35:26;;;;;;;;;;;;;;;;;;;;;
2022/02/20 06:37:51;;;;;;;22.35;5.85;;;20.40;46.90;;;;;;4966435;28;93111;-86
2022/02/20 06:40:17;;;;;;;16.25;4.30;;;20.50;47.70;;;;;;4964327;28;95517;-87
2022/02/20 06:42:42;;;;;;;17.10;4.15;;;20.50;47.80;;;;;;4966364;28;92168;-86
2022/02/20 06:45:08;;;;;;;11.43;4.00;;;20.60;47.70;;;;;;4967261;28;92594;-86
2022/02/20 06:47:34;;;;;;;17.75;4.18;;;20.60;47.70;;;;;;4966247;28;92190;-85
2022/02/20 06:49:59;;;;;;;17.25;4.32;;;20.60;48.10;;;;;;4966784;28;93158;-86
2022/02/20 06:52:25;;;;;;;15.07;4.00;;;20.70;48.60;;;;;;4966738;28;92963;-86
2022/02/20 06:54:50;;;;;;;14.10;4.20;;;20.70;48.50;;;;;;4966195;28;93752;-86
2022/02/20 06:57:16;;;;;;;14.02;4.35;;;20.70;48.50;;;;;;4966516;28;92573;-86
2022/02/20 06:59:42;;;;;;;18.20;4.55;;;20.80;48.60;;;;;;4965959;28;92738;-86
2022/02/20 07:02:07;;;;;;;13.27;4.55;;;20.80;48.90;;;;;;4965863;28;92850;-87
2022/02/20 07:04:33;;;;;;;15.80;4.60;;;20.80;48.80;;;;;;4964479;28;92375;-87
2022/02/20 07:06:58;;;;;;;14.85;4.30;;;20.80;48.60;;;;;;4964743;28;93043;-86
2022/02/20 07:09:24;;;;;;;11.23;4.15;;;20.90;48.60;;;;;;4966871;28;94015;-86
2022/02/20 07:11:50;;;;;;;11.35;4.38;;;20.90;48.70;;;;;;4965912;28;95741;-85
2022/02/20 07:14:15;;;;;;;10.82;3.80;;;20.90;49.10;;;;;;4965064;28;92804;-87
2022/02/20 07:16:41;;;;;;;13.98;4.32;;;20.90;48.50;;;;;;4962321;28;92940;-86
2022/02/20 07:19:06;;;;;;;14.00;4.32;;;20.90;48.40;;;;;;4969878;28;93817;-86
2022/02/20 07:21:32;;;;;;;12.65;4.15;;;20.90;48.40;;;;;;4970218;28;93483;-85
2022/02/20 07:24:06;;;;;;;11.73;3.95;;;20.90;48.30;;;;;;4968562;28;92197;-86
2022/02/20 07:26:32;;;;;;;13.73;4.03;;;20.90;48.20;;;;;;4968448;28;92864;-86
2022/02/20 07:28:58;;;;;;;12.95;4.32;;;20.90;48.30;;;;;;4968304;28;95179;-86
2022/02/20 07:31:26;;;;;;;10.70;3.88;;;21.00;48.10;;;;;;4968028;28;94452;-87
2022/02/20 07:33:54;;;;;;;13.30;4.13;;;21.00;48.70;;;;;;4969052;28;92401;-86
2022/02/20 07:36:20;;;;;;;9.57;3.78;;;20.90;48.00;;;;;;4970608;28;91946;-85
2022/02/20 07:38:46;;;;;;;12.68;3.78;;;20.90;48.00;;;;;;4967755;28;95769;-87
2022/02/20 07:41:11;;;;;;;10.63;3.33;;;20.90;48.10;;;;;;4968387;28;92698;-86
2022/02/20 07:43:37;;;;;;;9.77;3.63;;;20.90;48.00;;;;;;4967643;28;92995;-86
2022/02/20 07:46:03;;;;;;;13.68;4.07;;;20.90;48.30;;;;;;4967796;28;93006;-86
2022/02/20 07:48:28;;;;;;;10.60;3.80;;;20.90;48.40;;;;;;4967695;28;94646;-86
2022/02/20 07:50:54;;;;;;;12.10;4.10;;;20.90;48.40;;;;;;4969022;28;92760;-87
2022/02/20 07:53:20;;;;;;;10.35;3.83;;;20.90;48.40;;;;;;4967688;28;92203;-86
2022/02/20 07:55:45;;;;;;;10.80;3.80;;;20.90;48.40;;;;;;4968781;28;92339;-86
2022/02/20 07:58:12;;;;;;;12.57;3.67;;;20.90;48.40;;;;;;4971338;28;93235;-85
2022/02/20 08:00:38;;;;;;;11.63;3.78;;;20.90;48.50;;;;;;4968626;28;92566;-86
2022/02/20 08:03:04;;;;;;;11.80;3.63;;;20.90;48.50;;;;;;4966368;28;92990;-86
2022/02/20 08:05:30;;;;;;;9.98;3.60;;;20.90;48.70;;;;;;4967395;28;92523;-84
2022/02/20 08:08:05;;;;;;;12.50;3.40;;;20.90;49.00;;;;;;4968262;28;94126;-85
2022/02/20 08:10:31;;;;;;;23.92;6.18;;;20.90;49.20;;;;;;4964655;28;95851;-85
2022/02/20 08:12:57;;;;;;;16.35;4.65;;;20.90;48.50;;;;;;4968480;28;92748;-85
2022/02/20 08:15:23;;;;;;;23.67;5.72;;;20.90;48.70;;;;;;4966504;28;92330;-86
2022/02/20 08:17:49;;;;;;;19.50;4.32;;;20.90;48.80;;;;;;4967636;28;92374;-86
2022/02/20 08:20:16;;;;;;;18.13;4.95;;;20.80;48.80;;;;;;4982228;28;95450;-86
2022/02/20 08:22:43;;;;;;;15.50;4.60;;;20.90;48.90;;;;;;4968473;28;92989;-87
2022/02/20 08:25:09;;;;;;;18.75;4.82;;;20.90;49.00;;;;;;4967474;28;92173;-86
2022/02/20 08:27:36;;;;;;;16.95;4.93;;;20.90;49.20;;;;;;4968273;28;93052;-87
2022/02/20 08:30:04;;;;;;;15.57;4.97;;;20.90;49.30;;;;;;4966590;28;93917;-86
2022/02/20 08:32:30;;;;;;;16.52;4.75;;;20.90;49.50;;;;;;4964431;28;93902;-86
2022/02/20 08:34:56;;;;;;;24.25;5.15;;;21.00;49.70;;;;;;4967437;28;92975;-87
2022/02/20 08:37:21;;;;;;;19.48;5.60;;;21.00;49.70;;;;;;4912212;28;95274;-86
2022/02/20 08:39:47;;;;;;;24.42;5.60;;;21.00;49.90;;;;;;4967121;28;93127;-86
2022/02/20 08:42:13;;;;;;;16.20;4.40;;;21.00;49.90;;;;;;4965431;28;92808;-87
2022/02/20 08:44:38;;;;;;;18.88;4.88;;;21.00;50.20;;;;;;4968180;28;93157;-86
2022/02/20 08:47:09;;;;;;;15.00;4.47;;;21.00;50.70;;;;;;4966385;28;95790;-86
2022/02/20 08:49:36;;;;;;;24.83;5.43;;;21.00;50.60;;;;;;4983455;28;96193;-86
2022/02/20 08:52:02;;;;;;;15.93;4.82;;;21.00;50.60;;;;;;4968147;28;92979;-86
2022/02/20 08:54:28;;;;;;;13.30;4.22;;;21.00;50.80;;;;;;4967575;28;93486;-86
2022/02/20 08:56:54;;;;;;;18.95;5.10;;;21.00;50.90;;;;;;4967219;28;94123;-86
2022/02/20 08:59:19;;;;;;;20.65;4.90;;;21.00;52.10;;;;;;4965124;28;95724;-86
2022/02/20 09:01:45;;;;;;;21.13;5.85;;;21.00;51.40;;;;;;4965231;28;92770;-87
2022/02/20 09:04:12;;;;;;;26.30;6.05;;;21.00;51.10;;;;;;4981854;28;92615;-86
2022/02/20 09:06:39;;;;;;;18.55;6.40;;;21.00;51.30;;;;;;4965709;28;96179;-87
2022/02/20 09:09:05;;;;;;;24.70;6.85;;;21.00;50.80;;;;;;4965592;28;93921;-86
2022/02/20 09:11:31;;;;;;;19.77;5.53;;;21.00;50.90;;;;;;4968143;28;93186;-86
2022/02/20 09:13:57;;;;;;;32.20;5.72;;;21.00;50.80;;;;;;4965999;28;92150;-86
2022/02/20 09:16:22;;;;;;;24.08;6.63;;;21.00;52.60;;;;;;4966990;28;92961;-86
2022/02/20 09:18:48;;;;;;;19.77;5.75;;;21.10;53.70;;;;;;4965423;28;93112;-86
2022/02/20 09:21:14;;;;;;;21.90;6.00;;;21.00;53.70;;;;;;4962717;28;93912;-87
2022/02/20 09:23:39;;;;;;;29.00;7.85;;;21.00;53.40;;;;;;4967834;28;92916;-86
2022/02/20 09:26:06;;;;;;;26.58;7.55;;;21.00;54.60;;;;;;4965728;28;93299;-87
2022/02/20 09:28:32;;;;;;;21.40;6.95;;;21.10;54.90;;;;;;4980265;28;95129;-86
2022/02/20 09:31:05;;;;;;;35.00;8.25;;;21.00;55.80;;;;;;4966855;28;93047;-86
2022/02/20 09:33:30;;;;;;;30.10;7.10;;;21.00;55.30;;;;;;4965923;28;93035;-87
2022/02/20 09:35:56;;;;;;;36.28;7.88;;;21.00;55.60;;;;;;4966829;28;93475;-87
2022/02/20 09:38:21;;;;;;;35.00;7.47;;;21.00;55.90;;;;;;4968201;28;93752;-87
2022/02/20 09:40:48;;;;;;;30.80;6.47;;;21.10;53.80;;;;;;4965414;28;92822;-88
2022/02/20 09:43:15;;;;;;;23.42;5.30;;;21.10;54.50;;;;;;4965966;28;92911;-87
2022/02/20 09:45:46;;;;;;;14.73;4.35;;;21.10;53.20;;;;;;4965925;28;97318;-87
2022/02/20 09:48:12;;;;;;;29.70;6.05;;;21.00;53.80;;;;;;4965863;28;96039;-87
2022/02/20 09:50:38;;;;;;;19.48;5.55;;;21.00;53.00;;;;;;4967722;28;92005;-87
2022/02/20 09:53:04;;;;;;;22.80;5.72;;;21.00;52.70;;;;;;4966012;28;92547;-87
2022/02/20 09:55:29;;;;;;;16.65;4.93;;;21.00;53.10;;;;;;4966410;28;95766;-86
2022/02/20 09:57:56;;;;;;;20.38;5.88;;;21.00;53.20;;;;;;4965971;28;94950;-86
2022/02/20 10:00:22;;;;;;;23.40;5.70;;;21.00;52.90;;;;;;4966968;28;93185;-87
2022/02/20 10:02:48;;;;;;;20.40;6.32;;;21.00;52.80;;;;;;4966970;28;91674;-87
2022/02/20 10:05:19;;;;;;;16.25;5.82;;;21.00;53.40;;;;;;4965079;28;95278;-86
2022/02/20 10:07:45;;;;;;;20.15;5.30;;;21.10;53.50;;;;;;4965052;28;95428;-87
2022/02/20 10:10:20;;;;;;;23.85;5.30;;;21.10;53.30;;;;;;4965311;28;94062;-87
2022/02/20 10:12:55;;;;;;;16.63;4.75;;;21.00;52.80;;;;;;4967011;28;92932;-86
2022/02/20 10:15:29;;;;;;;16.30;4.07;;;21.00;52.80;;;;;;4982528;28;95803;-86
2022/02/20 10:18:11;;;;;;;11.55;4.72;;;21.00;53.40;;;;;;4965404;28;95216;-87
2022/02/20 10:20:37;;;;;;;15.43;4.55;;;21.00;53.60;;;;;;4982622;28;92090;-87
2022/02/20 10:23:15;;;;;;;14.00;4.93;;;21.00;53.60;;;;;;4965294;28;92383;-87
2022/02/20 10:25:48;;;;;;;21.17;4.60;;;21.00;52.80;;;;;;4966550;28;93752;-87
2022/02/20 10:28:14;;;;;;;13.77;4.05;;;21.00;52.40;;;;;;4966800;28;92764;-87
2022/02/20 10:30:40;;;;;;;20.42;5.07;;;21.00;52.10;;;;;;4966179;28;93212;-87
2022/02/20 10:33:20;;;;;;;12.90;4.00;;;21.10;52.00;;;;;;4965485;28;92590;-87
2022/02/20 10:35:48;;;;;;;10.82;3.90;;;21.10;51.70;;;;;;4966457;28;94474;-86
2022/02/20 10:38:16;;;;;;;18.25;5.60;;;21.00;51.50;;;;;;4965542;28;96449;-87
2022/02/20 10:40:44;;;;;;;25.50;6.28;;;21.00;51.70;;;;;;4965444;28;92138;-86
2022/02/20 10:43:34;;;;;;;23.92;6.72;;;21.10;51.80;;;;;;4967002;28;93047;-87
2022/02/20 10:46:13;;;;;;;21.52;6.63;;;21.00;51.80;;;;;;4966726;28;93175;-86
2022/02/20 10:48:45;;;;;;;25.75;6.78;;;21.10;51.80;;;;;;4965712;28;94174;-88
2022/02/20 10:51:13;;;;;;;21.98;5.82;;;21.10;51.60;;;;;;4964983;28;92867;-86
2022/02/20 10:53:40;;;;;;;18.17;5.43;;;21.10;51.60;;;;;;4969309;28;92174;-87
2022/02/20 10:56:06;;;;;;;23.45;6.10;;;21.10;51.90;;;;;;4970540;28;93150;-87
2022/02/20 10:58:33;;;;;;;25.73;6.43;;;21.10;52.20;;;;;;4968992;28;95279;-86
2022/02/20 11:01:04;;;;;;;18.38;6.47;;;21.10;52.50;;;;;;4968650;28;93131;-87
2022/02/20 11:03:42;;;;;;;19.25;6.30;;;21.00;53.20;;;;;;4970246;28;92972;-87
2022/02/20 11:06:08;;;;;;;20.67;6.15;;;21.00;53.60;;;;;;4983666;28;95339;-86
2022/02/20 11:08:33;;;;;;;18.13;5.30;;;21.00;54.20;;;;;;4968735;28;94981;-88
2022/02/20 11:11:36;;;;;;;20.17;5.72;;;21.00;53.90;;;;;;4967961;28;92841;-87
2022/02/20 11:13:44;;;;;;;22.17;6.35;;;21.00;54.00;;;;;;4969595;28;92558;-87
2022/02/20 11:16:14;;;;;;;20.63;5.90;;;21.00;54.30;;;;;;4968908;28;95333;-87
2022/02/20 11:18:41;;;;;;;17.77;5.63;;;21.00;54.60;;;;;;4969076;28;95115;-87
2022/02/20 11:21:07;;;;;;;19.50;5.88;;;21.00;54.30;;;;;;4986717;28;92747;-87
2022/02/20 11:23:32;;;;;;;18.50;5.22;;;21.10;53.70;;;;;;4969137;28;92032;-88
2022/02/20 11:26:01;;;;;;;13.55;4.95;;;21.00;54.10;;;;;;4969924;28;94080;-87
2022/02/20 11:28:27;;;;;;;23.07;5.43;;;21.10;54.10;;;;;;4985711;28;96199;-86
2022/02/20 11:30:53;;;;;;;17.55;4.45;;;21.00;52.90;;;;;;4967630;28;92004;-86
2022/02/20 11:33:27;;;;;;;16.80;4.57;;;21.10;53.00;;;;;;4967871;28;92718;-87
2022/02/20 11:35:53;;;;;;;15.00;5.03;;;21.10;52.70;;;;;;4968714;28;93207;-87
2022/02/20 11:38:21;;;;;;;14.38;4.55;;;21.10;52.60;;;;;;4967224;28;95902;-87
2022/02/20 11:40:53;;;;;;;15.43;4.13;;;21.10;53.10;;;;;;4967116;28;92476;-86
2022/02/20 11:43:20;;;;;;;17.02;4.82;;;21.10;53.20;;;;;;4969816;28;92162;-87
2022/02/20 11:46:08;;;;;;;13.50;3.95;;;21.10;53.40;;;;;;4967746;28;95474;-87
2022/02/20 11:48:34;;;;;;;15.13;3.92;;;21.10;53.60;;;;;;4971012;28;93118;-87
2022/02/20 11:51:14;;;;;;;13.90;4.07;;;21.10;53.50;;;;;;4969291;28;93061;-87
2022/02/20 11:53:41;;;;;;;12.85;4.25;;;21.20;54.10;;;;;;4968047;28;92124;-86
2022/02/20 11:56:11;;;;;;;15.10;4.32;;;21.20;54.00;;;;;;4969090;28;92856;-87
2022/02/20 11:58:37;;;;;;;13.23;3.95;;;21.20;54.00;;;;;;4964846;28;93953;-87
2022/02/20 12:01:08;;;;;;;16.63;4.70;;;21.20;54.10;;;;;;4966371;28;92996;-86
2022/02/20 12:03:43;;;;;;;12.98;4.20;;;21.20;54.90;;;;;;4966012;28;92592;-88
2022/02/20 12:06:08;;;;;;;11.95;4.68;;;21.30;54.70;;;;;;4966670;28;95827;-86
2022/02/20 12:08:36;;;;;;;12.70;4.00;;;21.30;55.20;;;;;;4968159;28;92731;-86
2022/02/20 12:11:44;;;;;;;12.82;3.97;;;21.30;54.30;;;;;;4965304;28;92798;-86
2022/02/20 12:14:16;;;;;;;14.45;4.70;;;21.30;54.70;;;;;;4963866;28;92936;-85
2022/02/20 12:16:47;;;;;;;16.00;5.00;;;21.20;54.40;;;;;;4964821;28;96630;-86
2022/02/20 12:19:23;;;;;;;16.52;4.20;;;21.20;54.50;;;;;;4967506;28;93886;-86
2022/02/20 12:22:07;;;;;;;17.45;4.28;;;21.20;54.60;;;;;;4983889;28;92051;-86
2022/02/20 12:24:43;;;;;;;15.00;4.43;;;21.20;54.80;;;;;;4968789;28;94126;-86
2022/02/20 12:27:21;;;;;;;10.90;4.40;;;21.20;54.70;;;;;;4967046;28;97002;-86
2022/02/20 12:29:51;;;;;;;10.38;3.88;;;21.20;54.70;;;;;;4968255;28;93815;-86
2022/02/20 12:32:21;;;;;;;14.63;4.40;;;21.20;54.70;;;;;;4969127;28;93062;-86
2022/02/20 12:35:04;;;;;;;12.93;4.18;;;21.20;54.60;;;;;;4967378;28;91327;-86
2022/02/20 12:37:34;;;;;;;9.05;3.88;;;21.20;54.70;;;;;;4966754;28;94742;-86
2022/02/20 12:40:16;;;;;;;9.32;3.90;;;21.20;54.70;;;;;;4969114;28;92765;-86
2022/02/20 12:42:55;;;;;;;10.93;3.70;;;21.20;54.70;;;;;;4968718;28;93811;-86
2022/02/20 12:45:23;;;;;;;;;;;21.20;54.70;;;;;;4969425;28;92012;-86